Buffalo, NY

1:08 PM EST on February 18, 2019 (GMT -0500)
The J's | West Side | | Change Station

Elev 636 ft 42.91 °N, 78.89 °W | Updated 10 seconds ago

Light Snow
Light Snow
26.4 °F
Feels Like 26 °F
N
1.8
Wind Variable Wind from SW
Gusts 6.3 mph

Today
High -- | Low -- °F
--% Chance of Precip.
Yesterday
High -- | Low -- °F
Precip. -- in
Pressure 30.14 in
Visibility 6.0 miles
Clouds Mostly Cloudy 1500 ft
Mostly Cloudy 2600 ft
Overcast 5500 ft
Windchill 26 °F
Dew Point 26 °F
Humidity 99%
Rainfall 0.00 in
Snow Depth Not available.
7:08 AM 5:50 PM
Waxing Gibbous, 99% visible
METAR KBUF 181754Z 32008KT 6SM -SN BKN015 BKN026 OVC055 M06/M09 A3010 RMK AO2 SLP206 P0000 60002 4/002 933002 T10561094 11050 21072 51017
Pressure 30.14 in
Visibility 6.0 miles
Clouds Mostly Cloudy 1500 ft
Mostly Cloudy 2600 ft
Overcast 5500 ft
Windchill 26 °F
Dew Point 26 °F
Humidity 99%
Rainfall 0.00 in
Snow Depth Not available.
7:08 AM 5:50 PM
Waxing Gibbous, 99% visible
METAR KBUF 181754Z 32008KT 6SM -SN BKN015 BKN026 OVC055 M06/M09 A3010 RMK AO2 SLP206 P0000 60002 4/002 933002 T10561094 11050 21072 51017

Get Severe Weather Alerts

Thanks for signing up!

Be on the lookout for a verification email in your inbox.

You'll start receiving the daily forecast at 6 AM.

×

10-Day Weather Forecast

Almanac

Astronomy

Feb. 18, 2019 Rise Set
Actual Time
Civil Twilight
Nautical Twilight
Astronomical Twilight
Moon
Length of Visible Light
Length of Day
Tomorrow will be .
, % of the Moon is Illuminated

Today's Extremes

State Highs State Lows

Community

WunderPhotos

Category 6

Welcome to Category 6. This is the collective home for Weather Underground's featured writeups by Dr. Jeff Masters (right), Bob Henson (left), Chris Burt, and other regular contributors.

Nearby

Air Quality

  Air Quality AQ Index Pollutant
Not available.

Snow Depth

Station Depth Elevation

Earthquake Activity

City Distance Mag. Time & Date
Minimum magnitude displayed is 2.5.

Coastal Water Temperatures

Place Temperature

Stations

Nearby Weather Stations

Station Location Temp. Windchill Dew Point Humidity Wind Precip. Elev Updated Type
                   

Watches & Warnings

There are currently no watches in effect.